Time;durP1;ratioP1;P1;durP2;ratioP2;P2;SDS_P1;SDS_P2;PMS_P1;PMS_P2;Temp;Humidity;BMP_temperature;BMP_pressure;BME280_temperature;BME280_humidity;BME280_pressure;Samples;Min_cycle;Max_cycle;Signal;HPM_P1;HPM_P2
2022/05/07 05:52:27;;;;;;;;;19.25;17.50;;;;;16.50;46.46;101884.41;5977002;22;46623;-50
2022/05/07 06:38:51;;;;;;;;;20.50;20.25;;;;;16.64;46.64;101865.53;5046113;22;45590;-51
2022/05/07 06:41:16;;;;;;;;;18.75;16.25;;;;;16.80;46.68;101888.16;5000792;28;45390;-48
2022/05/07 06:43:41;;;;;;;;;24.50;21.25;;;;;16.85;46.41;101904.00;5000655;28;46649;-48
2022/05/07 06:46:07;;;;;;;;;22.25;19.25;;;;;16.88;46.25;101903.97;5011821;28;45318;-51
2022/05/07 06:48:32;;;;;;;;;20.75;17.25;;;;;16.90;46.54;101910.97;4998002;28;46025;-57
2022/05/07 06:50:57;;;;;;;;;18.50;15.25;;;;;16.94;46.48;101913.59;5001407;28;45188;-52
2022/05/07 06:53:23;;;;;;;;;18.50;16.75;;;;;16.95;46.15;101908.22;5000867;28;45272;-47
2022/05/07 06:56:03;;;;;;;;;17.25;16.75;;;;;17.00;46.29;101913.44;5000626;28;45481;-50
2022/05/07 06:58:30;;;;;;;;;18.50;16.50;;;;;17.06;46.50;101926.59;5000252;28;45351;-51
2022/05/07 07:08:42;;;;;;;;;24.75;18.00;;;;;17.16;46.15;101922.81;6037954;22;46426;-51
2022/05/07 07:11:07;;;;;;;;;20.50;17.75;;;;;17.23;46.43;101934.16;4997230;28;45980;-48
2022/05/07 07:13:32;;;;;;;;;25.25;23.25;;;;;17.26;46.41;101934.09;5000743;28;45935;-45
2022/05/07 07:15:58;;;;;;;;;24.00;18.50;;;;;17.29;46.40;101931.34;5000041;28;45405;-50
2022/05/07 07:18:23;;;;;;;;;24.25;20.50;;;;;17.31;46.23;101928.69;5008369;28;46151;-49
2022/05/07 07:20:49;;;;;;;;;18.75;16.25;;;;;17.39;46.42;101926.72;5005035;28;45457;-50
2022/05/07 07:23:14;;;;;;;;;29.50;18.50;;;;;17.42;45.78;101928.41;5000664;28;45329;-46
2022/05/07 07:25:42;;;;;;;;;27.25;21.25;;;;;17.48;45.98;101930.94;5000090;28;45346;-47
2022/05/07 07:28:09;;;;;;;;;30.00;21.25;;;;;17.51;45.96;101934.38;5000223;28;45229;-49
2022/05/07 07:30:34;;;;;;;;;25.50;22.75;;;;;17.54;46.20;101934.28;4999105;28;45304;-48
2022/05/07 07:33:00;;;;;;;;;22.75;19.00;;;;;17.58;46.22;101942.22;5000235;28;45224;-47
2022/05/07 07:35:26;;;;;;;;;25.75;23.50;;;;;17.59;46.25;101943.97;4999558;28;45645;-47
2022/05/07 07:37:51;;;;;;;;;23.00;20.25;;;;;17.61;46.18;101944.78;4999284;28;45449;-48
2022/05/07 07:40:17;;;;;;;;;26.25;24.00;;;;;17.60;46.28;101938.59;4999956;28;45282;-48
2022/05/07 07:42:42;;;;;;;;;24.25;23.75;;;;;17.65;46.00;101942.03;5000054;28;45312;-44
2022/05/07 07:47:59;;;;;;;;;27.25;25.50;;;;;17.76;45.81;101943.53;4997953;28;45684;-53
2022/05/07 07:50:27;;;;;;;;;24.50;21.25;;;;;17.80;45.96;101943.41;5001490;28;45338;-46
2022/05/07 07:52:57;;;;;;;;;20.75;16.75;;;;;17.87;45.83;101934.38;4984754;28;45528;-47
2022/05/07 07:55:23;;;;;;;;;19.25;18.00;;;;;17.92;45.88;101938.69;4999540;28;45252;-49
2022/05/07 07:57:49;;;;;;;;;22.00;18.75;;;;;17.98;45.94;101943.91;4999452;28;46166;-51
2022/05/07 08:00:15;;;;;;;;;21.00;17.75;;;;;18.03;45.89;101941.97;4999612;28;45390;-49
2022/05/07 08:02:52;;;;;;;;;18.75;17.00;;;;;18.09;45.77;101935.63;4999738;28;45502;-50
2022/05/07 08:05:31;;;;;;;;;23.25;19.50;;;;;18.15;45.44;101923.03;4987287;28;45476;-48
2022/05/07 08:13:27;;;;;;;;;18.50;15.50;;;;;18.38;45.70;101932.16;4987067;28;45711;-47
2022/05/07 08:15:53;;;;;;;;;14.25;14.25;;;;;18.45;45.85;101932.84;4998685;28;45644;-51
2022/05/07 08:18:19;;;;;;;;;23.00;18.00;;;;;18.50;45.48;101934.50;5007811;28;46084;-49
2022/05/07 08:20:44;;;;;;;;;15.50;12.75;;;;;18.58;45.63;101933.38;5005937;28;45452;-49
2022/05/07 08:23:11;;;;;;;;;17.50;15.25;;;;;18.62;45.49;101933.25;4984642;28;45363;-50
2022/05/07 08:25:37;;;;;;;;;11.00;11.00;;;;;18.70;45.51;101932.16;5002377;28;45504;-51
2022/05/07 08:28:03;;;;;;;;;12.50;12.50;;;;;18.73;45.52;101938.28;5002933;28;45331;-52
2022/05/07 08:30:30;;;;;;;;;13.50;13.00;;;;;18.76;45.19;101916.88;5002425;28;45542;-52
2022/05/07 08:32:55;;;;;;;;;14.50;14.00;;;;;18.85;45.52;101939.69;5003133;28;45359;-51
2022/05/07 08:35:21;;;;;;;;;21.25;16.00;;;;;18.91;45.58;101930.69;5002750;28;45562;-47
2022/05/07 08:37:46;;;;;;;;;15.75;13.50;;;;;18.96;45.26;101931.41;5001854;28;47377;-47
2022/05/07 08:40:16;;;;;;;;;18.75;14.50;;;;;18.99;45.19;101929.53;4985088;28;45265;-48
2022/05/07 08:42:43;;;;;;;;;14.75;14.75;;;;;19.05;45.34;101932.94;4985671;28;45402;-48
2022/05/07 08:45:09;;;;;;;;;17.00;13.50;;;;;19.10;45.26;101931.84;5012127;28;45817;-49
2022/05/07 08:47:35;;;;;;;;;17.00;16.00;;;;;19.12;45.25;101926.50;5002204;28;46317;-49
2022/05/07 08:50:00;;;;;;;;;15.00;14.25;;;;;19.23;45.05;101920.81;4984804;28;45339;-51
2022/05/07 08:52:28;;;;;;;;;15.75;15.50;;;;;19.28;45.00;101934.84;4998241;28;45453;-51
2022/05/07 08:54:53;;;;;;;;;14.50;14.25;;;;;19.33;45.14;101928.47;5002349;28;45512;-49
2022/05/07 08:57:18;;;;;;;;;15.75;13.00;;;;;19.39;44.71;101927.38;5002395;28;45454;-49
2022/05/07 08:59:44;;;;;;;;;19.00;16.25;;;;;19.44;45.22;101928.09;5001560;28;45486;-50
2022/05/07 09:02:10;;;;;;;;;16.00;15.00;;;;;19.51;45.01;101925.25;5002215;28;45145;-46
2022/05/07 09:04:38;;;;;;;;;20.00;17.50;;;;;19.58;44.67;101921.44;4998925;28;45435;-53
2022/05/07 09:07:05;;;;;;;;;18.50;16.75;;;;;19.64;45.08;101910.59;5002248;28;45346;-54
2022/05/07 09:09:33;;;;;;;;;15.50;14.50;;;;;19.73;45.13;101920.94;5001373;28;45446;-51
2022/05/07 09:11:59;;;;;;;;;19.00;18.00;;;;;19.83;44.67;101926.00;5002143;28;45296;-52
2022/05/07 09:14:31;;;;;;;;;12.00;11.00;;;;;19.90;44.95;101916.84;5001977;28;45326;-54
2022/05/07 09:17:00;;;;;;;;;17.00;11.75;;;;;19.95;44.60;101913.09;5001153;28;46100;-52
2022/05/07 09:19:30;;;;;;;;;19.25;16.75;;;;;20.05;44.42;101916.31;5014033;28;45547;-49
2022/05/07 09:22:06;;;;;;;;;15.50;14.50;;;;;20.11;44.50;101915.22;5001753;28;45383;-50
2022/05/07 09:24:31;;;;;;;;;14.75;13.50;;;;;20.20;44.62;101911.34;5000144;28;45546;-46
2022/05/07 09:26:57;;;;;;;;;17.25;16.75;;;;;20.28;44.25;101917.28;5001969;28;46293;-52
2022/05/07 09:37:36;;;;;;;;;15.25;14.50;;;;;20.66;44.46;101919.47;4989113;28;45783;-52
2022/05/07 09:40:06;;;;;;;;;16.75;15.25;;;;;20.74;44.22;101912.03;4999847;28;45646;-48
2022/05/07 09:42:33;;;;;;;;;17.25;16.50;;;;;20.83;43.94;101905.47;4983667;28;45467;-52
2022/05/07 09:45:01;;;;;;;;;17.00;15.75;;;;;20.93;44.21;101914.88;5000726;28;45537;-50
2022/05/07 09:47:27;;;;;;;;;18.00;14.25;;;;;21.03;44.15;101910.91;5000976;28;46146;-53
2022/05/07 09:57:30;;;;;;;;;15.75;15.25;;;;;21.26;44.21;101912.66;4992605;28;45279;-54
2022/05/07 09:58:09;;;;;;;;;20.50;16.00;;;;;21.45;44.06;101911.03;4988507;28;45601;-53
2022/05/07 10:00:43;;;;;;;;;15.75;13.75;;;;;21.52;44.15;101909.81;4999683;28;45364;-54
2022/05/07 10:03:16;;;;;;;;;15.00;13.00;;;;;21.58;43.55;101904.25;5001309;28;45401;-52
2022/05/07 10:06:04;;;;;;;;;19.50;16.50;;;;;21.65;43.42;101910.25;5001189;28;45591;-55
2022/05/07 10:08:54;;;;;;;;;17.75;17.00;;;;;21.69;43.55;101909.16;4988232;28;47134;-52
2022/05/07 10:11:20;;;;;;;;;14.00;14.00;;;;;21.74;43.91;101909.84;4996837;28;45254;-50
2022/05/07 10:13:56;;;;;;;;;19.00;15.00;;;;;21.78;43.55;101907.91;4991093;28;45369;-49
2022/05/07 10:16:23;;;;;;;;;20.75;18.25;;;;;21.82;43.20;101902.31;4992423;28;45319;-47
2022/05/07 10:18:49;;;;;;;;;18.25;17.75;;;;;21.88;43.47;101903.88;5012734;28;45441;-48
2022/05/07 10:21:17;;;;;;;;;18.50;16.25;;;;;21.99;43.54;101900.75;4989017;28;45299;-49
2022/05/07 10:23:52;;;;;;;;;17.00;17.00;;;;;22.10;43.14;101902.94;5001261;28;45422;-49
2022/05/07 10:37:08;;;;;;;;;16.50;15.75;;;;;22.64;43.44;101903.19;5008862;22;45375;-50
2022/05/07 10:39:36;;;;;;;;;14.00;14.00;;;;;22.75;42.92;101900.03;4960131;28;45414;-49
2022/05/07 10:42:13;;;;;;;;;17.25;16.00;;;;;22.92;42.70;101900.09;4958834;28;45485;-50
2022/05/07 10:44:41;;;;;;;;;17.50;16.50;;;;;23.11;43.22;101897.38;4969002;28;45391;-48
2022/05/07 10:47:13;;;;;;;;;15.75;14.25;;;;;23.34;42.99;101896.25;4963630;28;45288;-43
2022/05/07 10:50:06;;;;;;;;;18.00;18.00;;;;;23.65;42.84;101894.72;4961619;28;46425;-46
2022/05/07 10:52:34;;;;;;;;;16.50;13.75;;;;;23.94;42.95;101894.19;4951665;28;45347;-46
2022/05/07 10:55:08;;;;;;;;;18.50;15.75;;;;;24.19;42.72;101885.69;4961407;28;45395;-43
2022/05/07 10:57:44;;;;;;;;;11.25;11.25;;;;;24.43;42.58;101891.53;4961522;28;45505;-48
2022/05/07 11:00:17;;;;;;;;;17.00;15.00;;;;;24.66;42.49;101889.44;4961132;28;46268;-49
2022/05/07 11:02:45;;;;;;;;;17.25;14.00;;;;;24.83;42.39;101881.28;4961284;28;45451;-48
2022/05/07 11:05:11;;;;;;;;;13.50;13.25;;;;;25.01;42.53;101880.34;4960621;28;45320;-43
2022/05/07 11:07:38;;;;;;;;;17.00;16.25;;;;;25.16;42.42;101882.13;4961006;28;45320;-52
2022/05/07 11:10:03;;;;;;;;;17.75;15.50;;;;;25.30;41.68;101873.25;4946952;28;46030;-48
2022/05/07 11:12:30;;;;;;;;;16.25;15.00;;;;;25.43;41.72;101874.31;4961120;28;45284;-52
2022/05/07 11:14:55;;;;;;;;;17.00;15.50;;;;;25.55;41.83;101879.91;4961519;28;45478;-52
2022/05/07 11:17:35;;;;;;;;;17.00;16.25;;;;;25.66;41.22;101873.88;4960857;28;45320;-48
2022/05/07 11:20:02;;;;;;;;;15.25;14.25;;;;;25.73;41.01;101877.94;4949995;28;47346;-55
2022/05/07 11:22:29;;;;;;;;;19.25;16.75;;;;;25.75;41.16;101876.88;4943388;28;45613;-58
2022/05/07 11:24:58;;;;;;;;;16.50;14.25;;;;;25.76;41.06;101877.72;4960964;28;45408;-54
2022/05/07 11:27:26;;;;;;;;;14.50;14.00;;;;;25.75;41.16;101870.66;4960851;28;45518;-53
2022/05/07 11:29:53;;;;;;;;;17.50;14.75;;;;;25.74;40.56;101872.44;4960699;28;45407;-57
2022/05/07 11:32:18;;;;;;;;;21.75;19.50;;;;;25.72;41.04;101873.50;4938819;28;45721;-50
2022/05/07 11:34:44;;;;;;;;;16.75;14.75;;;;;25.72;40.22;101862.75;4943820;28;45414;-54
2022/05/07 11:37:15;;;;;;;;;13.25;13.00;;;;;25.72;40.49;101874.38;4960572;28;45328;-53
2022/05/07 11:39:58;;;;;;;;;15.00;13.75;;;;;25.76;40.42;101872.34;4960811;28;45252;-57
2022/05/07 11:42:43;;;;;;;;;15.75;15.25;;;;;25.80;40.20;101866.69;4948188;28;45270;-57
2022/05/07 11:45:33;;;;;;;;;15.50;15.25;;;;;25.85;39.95;101874.50;4970590;28;45552;-58
2022/05/07 11:48:13;;;;;;;;;20.00;15.25;;;;;25.91;40.36;101867.84;4943144;28;45597;-62
2022/05/07 11:50:50;;;;;;;;;13.25;13.00;;;;;25.93;39.78;101861.41;4959973;28;46570;-53
2022/05/07 11:53:21;;;;;;;;;16.25;14.50;;;;;25.99;40.02;101865.56;4959404;28;45256;-59
2022/05/07 11:55:48;;;;;;;;;17.25;16.50;;;;;26.04;40.15;101862.59;4957618;28;45655;-57
2022/05/07 12:39:57;;;;;;;;;17.50;15.25;;;;;25.91;38.09;101857.97;5376429;23;45444;-53
2022/05/07 12:42:23;;;;;;;;;19.25;15.25;;;;;25.78;38.82;101857.84;5011675;28;45627;-56
2022/05/07 12:44:49;;;;;;;;;14.50;13.00;;;;;25.71;38.67;101855.63;5006252;28;45467;-49
2022/05/07 12:47:17;;;;;;;;;14.00;12.25;;;;;25.63;38.25;101854.28;5000985;28;45544;-53
2022/05/07 12:49:42;;;;;;;;;19.00;15.75;;;;;25.53;39.03;101857.59;4998972;28;45500;-54
2022/05/07 12:52:09;;;;;;;;;18.00;13.50;;;;;25.45;38.45;101858.94;4981289;28;46377;-57
2022/05/07 12:54:35;;;;;;;;;12.50;11.50;;;;;25.39;38.54;101851.22;4999060;28;45254;-57
2022/05/07 12:57:01;;;;;;;;;13.75;13.75;;;;;25.34;38.83;101855.13;4999117;28;45457;-61
2022/05/07 12:59:26;;;;;;;;;15.75;15.75;;;;;25.28;38.34;101848.28;4999129;28;45398;-57
2022/05/07 13:01:52;;;;;;;;;12.75;10.75;;;;;25.24;38.28;101852.97;4997266;28;47066;-55
2022/05/07 13:04:18;;;;;;;;;14.75;13.50;;;;;25.24;38.79;101857.47;4980780;28;45379;-54
2022/05/07 13:06:43;;;;;;;;;13.50;12.50;;;;;25.18;38.64;101858.69;5001827;28;45266;-57
2022/05/07 13:09:08;;;;;;;;;12.00;10.50;;;;;25.14;38.21;101849.97;5001681;28;45314;-58
2022/05/07 13:11:34;;;;;;;;;9.00;8.00;;;;;25.12;38.31;101851.00;5000905;28;47156;-69
2022/05/07 13:14:00;;;;;;;;;15.75;12.75;;;;;25.07;38.99;101848.59;5002433;28;45427;-54
2022/05/07 13:16:25;;;;;;;;;16.00;15.00;;;;;25.03;38.40;101847.03;5002190;28;45319;-53
2022/05/07 13:18:50;;;;;;;;;13.00;13.00;;;;;24.97;38.39;101845.56;5014226;28;45310;-61
2022/05/07 13:21:16;;;;;;;;;12.00;10.50;;;;;24.91;38.37;101840.53;5002763;28;45256;-57
2022/05/07 13:23:41;;;;;;;;;11.50;11.00;;;;;24.86;38.61;101839.06;5002297;28;45404;-58
2022/05/07 13:26:07;;;;;;;;;12.25;11.25;;;;;24.79;38.04;101835.84;5000450;28;45239;-54
2022/05/07 13:28:33;;;;;;;;;15.75;14.00;;;;;24.74;38.28;101838.81;5001971;28;45325;-57
2022/05/07 13:30:59;;;;;;;;;10.50;9.75;;;;;24.70;37.91;101833.72;5001707;28;45615;-58
2022/05/07 13:33:26;;;;;;;;;8.50;8.50;;;;;24.64;38.72;101838.47;4979098;28;46058;-53
2022/05/07 13:35:52;;;;;;;;;8.50;7.75;;;;;24.62;38.61;101832.28;4984464;28;45351;-51
2022/05/07 13:38:17;;;;;;;;;14.50;14.00;;;;;24.60;38.10;101828.84;4984033;28;45371;-51
2022/05/07 13:40:44;;;;;;;;;6.50;6.50;;;;;24.64;38.42;101822.34;5000266;28;47277;-51
2022/05/07 13:43:10;;;;;;;;;11.75;8.75;;;;;24.67;38.24;101822.16;5001143;28;45316;-51
2022/05/07 13:45:36;;;;;;;;;14.25;12.00;;;;;24.70;38.31;101815.75;4995641;28;45383;-52
2022/05/07 13:48:02;;;;;;;;;12.25;11.50;;;;;24.76;38.42;101817.22;5012895;28;45299;-48
2022/05/07 13:50:27;;;;;;;;;11.75;11.25;;;;;24.81;38.41;101813.31;5002103;28;48344;-47
2022/05/07 13:52:53;;;;;;;;;8.50;7.25;;;;;24.85;38.34;101811.31;5002202;28;45294;-62
2022/05/07 13:55:18;;;;;;;;;10.50;9.50;;;;;24.93;38.31;101808.19;5006141;28;45520;-46
2022/05/07 13:57:43;;;;;;;;;10.25;10.25;;;;;25.01;38.19;101808.59;4992155;28;45434;-54
2022/05/07 14:00:09;;;;;;;;;7.25;7.25;;;;;25.23;37.83;101802.84;5000790;28;46115;-51
2022/05/07 14:02:37;;;;;;;;;8.75;8.25;;;;;25.73;38.19;101797.19;5001378;28;45388;-52
2022/05/07 14:05:04;;;;;;;;;4.75;3.00;;;;;26.38;37.22;101802.09;5001173;28;45432;-52
2022/05/07 14:07:30;;;;;;;;;5.00;5.00;;;;;26.76;37.78;101796.03;5001275;28;45350;-51
2022/05/07 14:09:56;;;;;;;;;10.00;9.00;;;;;27.02;37.82;101796.13;5000601;28;45633;-48
2022/05/07 14:12:22;;;;;;;;;6.75;5.75;;;;;27.24;37.44;101790.16;5001193;28;45311;-51
2022/05/07 14:14:47;;;;;;;;;7.75;6.25;;;;;27.43;37.54;101786.19;4999932;28;45286;-49
2022/05/07 14:17:13;;;;;;;;;8.00;7.00;;;;;27.56;37.41;101783.53;5001005;28;45239;-49
2022/05/07 14:19:40;;;;;;;;;3.50;3.50;;;;;27.67;37.49;101774.66;5011897;28;48143;-51
2022/05/07 14:22:06;;;;;;;;;9.00;8.50;;;;;27.88;37.21;101774.97;5000981;28;45389;-50
2022/05/07 14:24:32;;;;;;;;;7.75;7.75;;;;;28.19;36.87;101770.94;5000912;28;45319;-50
2022/05/07 14:26:58;;;;;;;;;5.25;5.25;;;;;28.54;36.43;101767.47;4983181;28;45464;-49
2022/05/07 14:29:24;;;;;;;;;8.50;8.00;;;;;28.88;36.33;101774.94;5000953;28;45284;-59
2022/05/07 14:31:50;;;;;;;;;5.00;5.00;;;;;29.16;36.29;101765.53;4997345;28;45439;-50
2022/05/07 14:34:16;;;;;;;;;7.50;7.00;;;;;29.33;36.24;101753.44;4997869;28;45472;-57
2022/05/07 14:36:42;;;;;;;;;6.75;5.00;;;;;29.53;36.10;101756.41;5000802;28;45532;-51
2022/05/07 14:39:07;;;;;;;;;3.75;3.75;;;;;29.75;36.04;101751.97;4999759;28;46214;-56
2022/05/07 14:41:33;;;;;;;;;3.25;3.25;;;;;29.89;35.50;101746.34;5000671;28;45353;-59
2022/05/07 14:43:59;;;;;;;;;4.25;2.75;;;;;30.05;35.73;101742.38;5003641;28;45532;-58
2022/05/07 14:46:24;;;;;;;;;4.00;2.00;;;;;30.23;35.25;101740.88;5009244;28;45505;-59
2022/05/07 14:48:50;;;;;;;;;6.00;4.00;;;;;30.41;35.17;101738.50;5000528;28;45255;-59
2022/05/07 14:51:17;;;;;;;;;4.50;3.25;;;;;30.62;34.92;101735.88;4983787;28;45299;-58
2022/05/07 14:53:43;;;;;;;;;2.00;2.00;;;;;30.80;34.27;101730.75;5000820;28;45279;-59
2022/05/07 14:56:09;;;;;;;;;2.00;2.00;;;;;31.01;34.52;101729.91;5000509;28;45285;-61
2022/05/07 14:58:34;;;;;;;;;2.75;2.75;;;;;31.17;34.28;101725.88;5000089;28;45323;-58
2022/05/07 15:01:00;;;;;;;;;2.25;2.25;;;;;31.31;33.58;101727.38;4999340;28;45249;-50
2022/05/07 15:03:27;;;;;;;;;2.00;2.00;;;;;31.44;33.61;101719.88;5000759;28;45160;-58
2022/05/07 15:05:54;;;;;;;;;2.50;2.50;;;;;31.54;33.03;101722.66;4983333;28;45280;-56
2022/05/07 15:11:04;;;;;;;;;1.25;1.25;;;;;31.59;32.79;101721.25;5000383;28;45361;-71
2022/05/07 15:13:29;;;;;;;;;2.00;1.00;;;;;31.58;32.53;101721.38;5000683;28;45433;-70
2022/05/07 15:15:55;;;;;;;;;3.50;3.50;;;;;31.54;32.57;101711.78;5000261;28;45559;-70
2022/05/07 15:18:21;;;;;;;;;2.50;2.25;;;;;31.47;32.47;101713.31;5008360;28;45409;-61
2022/05/07 15:20:49;;;;;;;;;2.00;2.00;;;;;31.39;32.50;101709.44;5005234;28;45331;-61
2022/05/07 15:23:16;;;;;;;;;3.00;3.00;;;;;31.33;32.27;101707.25;5000115;28;45311;-60
2022/05/07 15:25:41;;;;;;;;;2.50;2.50;;;;;31.32;31.55;101710.09;5000056;28;45624;-60
2022/05/07 15:28:07;;;;;;;;;3.75;2.00;;;;;31.35;31.44;101704.41;4998678;28;46251;-61
2022/05/07 15:30:32;;;;;;;;;4.00;4.00;;;;;31.39;31.78;101708.59;4999283;28;45357;-61
2022/05/07 15:38:26;;;;;;;;;4.75;4.75;;;;;31.24;31.34;101699.94;5005967;28;45298;-61
2022/05/07 15:40:51;;;;;;;;;3.75;3.75;;;;;31.21;31.84;101697.50;4999934;28;45263;-61
2022/05/07 15:43:18;;;;;;;;;3.75;2.75;;;;;31.21;31.69;101700.22;5000270;28;45168;-61
2022/05/07 15:45:44;;;;;;;;;3.50;2.25;;;;;31.22;31.36;101708.22;5011809;28;45593;-61
2022/05/07 15:48:09;;;;;;;;;3.50;2.50;;;;;31.20;31.12;101701.19;4999703;28;46238;-61
2022/05/07 15:50:35;;;;;;;;;1.75;1.75;;;;;31.18;31.25;101706.72;4999782;28;45306;-61
2022/05/07 15:53:00;;;;;;;;;4.25;3.50;;;;;31.16;31.41;101697.88;4999842;28;45407;-61
2022/05/07 15:55:26;;;;;;;;;7.00;3.25;;;;;31.12;30.76;101702.72;5005163;28;45267;-61
2022/05/07 15:57:51;;;;;;;;;7.50;3.75;;;;;31.02;31.07;101704.47;5007650;28;45897;-61
2022/05/07 16:00:17;;;;;;;;;3.75;3.00;;;;;30.91;31.17;101697.25;4998810;28;45425;-61
2022/05/07 16:02:43;;;;;;;;;3.25;3.25;;;;;30.80;30.40;101702.75;4999980;28;45481;-61
2022/05/07 16:05:09;;;;;;;;;4.50;4.50;;;;;30.66;30.22;101700.38;5013139;28;45356;-61
2022/05/07 16:07:35;;;;;;;;;4.00;3.75;;;;;30.52;30.51;101702.38;4999717;28;47030;-61
2022/05/07 16:10:00;;;;;;;;;6.25;4.50;;;;;30.39;30.17;101707.97;4999465;28;45257;-61
2022/05/07 16:12:25;;;;;;;;;5.50;4.00;;;;;30.23;30.51;101710.22;4999851;28;45168;-61
2022/05/07 16:14:51;;;;;;;;;2.50;2.25;;;;;30.12;30.00;101708.41;4999748;28;45299;-61
2022/05/07 16:17:17;;;;;;;;;3.00;2.00;;;;;29.96;30.53;101690.69;4999645;28;46286;-61
2022/05/07 16:19:42;;;;;;;;;2.25;2.25;;;;;29.95;30.35;101697.09;4999875;28;45363;-61
2022/05/07 16:24:57;;;;;;;;;2.25;2.25;;;;;29.89;30.40;101696.75;4999825;28;45235;-61
2022/05/07 16:25:00;;;;;;;;;1.00;1.00;;;;;29.77;29.84;101691.31;4988417;28;45422;-62
2022/05/07 16:27:27;;;;;;;;;1.75;1.75;;;;;29.65;29.91;101695.00;4999391;28;45294;-62
2022/05/07 16:29:53;;;;;;;;;1.00;1.00;;;;;29.55;29.66;101694.00;4998210;28;45328;-62
2022/05/07 16:32:19;;;;;;;;;1.00;1.00;;;;;29.44;29.56;101693.03;4999348;28;45354;-62
2022/05/07 16:34:44;;;;;;;;;1.00;0.25;;;;;29.34;29.47;101697.47;4999824;28;45291;-62
2022/05/07 16:37:10;;;;;;;;;0.75;0.75;;;;;29.21;29.85;101692.13;4999388;28;46143;-63
2022/05/07 16:39:35;;;;;;;;;2.00;2.00;;;;;29.06;29.41;101694.19;4999432;28;45437;-64
2022/05/07 16:42:00;;;;;;;;;1.00;1.00;;;;;28.90;29.33;101702.63;5001669;28;45420;-63
2022/05/07 16:44:26;;;;;;;;;2.00;1.50;;;;;28.74;29.22;101700.22;5009626;28;45246;-63
2022/05/07 16:46:51;;;;;;;;;1.00;1.00;;;;;28.60;29.10;101695.00;5007596;28;45218;-63
2022/05/07 16:49:17;;;;;;;;;3.00;2.00;;;;;28.42;29.07;101700.81;5002872;28;45322;-63
2022/05/07 16:51:42;;;;;;;;;2.00;2.00;;;;;28.24;29.32;101702.19;5007610;28;45522;-63
2022/05/07 16:54:11;;;;;;;;;6.25;5.00;;;;;28.10;29.03;101700.50;5002653;28;45304;-63
2022/05/07 16:56:37;;;;;;;;;7.00;7.00;;;;;27.92;28.94;101692.75;5002480;28;47188;-62
2022/05/07 16:59:02;;;;;;;;;8.50;6.00;;;;;27.76;29.19;101697.53;5002634;28;45279;-62
2022/05/07 17:01:28;;;;;;;;;1.25;1.25;;;;;27.56;28.67;101698.00;5002514;28;45347;-62
2022/05/07 17:03:53;;;;;;;;;4.00;3.00;;;;;27.40;28.81;101694.66;5009644;28;45616;-62
2022/05/07 17:06:19;;;;;;;;;3.00;3.00;;;;;27.21;28.63;101689.69;4989650;28;47263;-62
2022/05/07 17:08:44;;;;;;;;;3.75;3.00;;;;;27.06;29.05;101688.91;5002556;28;45341;-62
2022/05/07 17:11:10;;;;;;;;;4.50;3.50;;;;;26.87;29.34;101694.72;5002634;28;45407;-62
2022/05/07 17:13:35;;;;;;;;;3.00;1.50;;;;;26.72;29.00;101692.06;4984067;28;45469;-63
2022/05/07 17:16:01;;;;;;;;;5.00;4.00;;;;;26.56;28.99;101691.38;4982442;28;46415;-62
2022/05/07 17:18:26;;;;;;;;;2.50;2.00;;;;;26.43;28.57;101697.56;4982818;28;45271;-62
2022/05/07 17:20:52;;;;;;;;;3.25;2.00;;;;;26.28;28.65;101693.19;4982864;28;45315;-63
2022/05/07 17:23:17;;;;;;;;;3.25;2.25;;;;;26.15;28.72;101693.16;4981475;28;45742;-62
2022/05/07 17:25:42;;;;;;;;;3.75;2.00;;;;;26.00;28.81;101700.38;4964887;28;45383;-62
2022/05/07 17:28:09;;;;;;;;;3.25;3.00;;;;;25.87;29.35;101700.25;4982724;28;45334;-62
2022/05/07 17:30:34;;;;;;;;;3.00;3.00;;;;;25.75;29.56;101701.06;4982442;28;45177;-62
2022/05/07 17:32:59;;;;;;;;;3.50;3.50;;;;;25.63;29.13;101702.69;4982613;28;45332;-62
2022/05/07 17:35:25;;;;;;;;;5.25;4.00;;;;;25.51;29.64;101706.16;4982472;28;46288;-62
2022/05/07 17:37:51;;;;;;;;;3.50;3.50;;;;;25.39;29.49;101707.78;4982638;28;45556;-62
2022/05/07 17:40:16;;;;;;;;;4.50;4.50;;;;;25.23;29.79;101702.44;4982465;28;45296;-61
2022/05/07 17:42:42;;;;;;;;;4.75;4.75;;;;;25.15;30.07;101708.28;4982519;28;45613;-63
2022/05/07 17:45:08;;;;;;;;;2.75;2.25;;;;;25.04;29.78;101710.78;5006417;28;47099;-63
2022/05/07 17:47:36;;;;;;;;;5.75;5.75;;;;;24.93;30.21;101708.72;4982701;28;45311;-63
2022/05/07 17:50:02;;;;;;;;;5.75;5.75;;;;;24.80;30.24;101713.97;4982300;28;45311;-62
2022/05/07 17:52:28;;;;;;;;;5.00;5.00;;;;;24.71;30.35;101712.69;4981779;28;45322;-62
2022/05/07 17:54:53;;;;;;;;;7.00;4.50;;;;;24.63;30.66;101717.63;4964856;28;46151;-62
2022/05/07 17:57:19;;;;;;;;;3.75;3.75;;;;;24.56;30.95;101713.56;4981087;28;45256;-62
2022/05/07 17:59:45;;;;;;;;;5.00;5.00;;;;;24.48;30.78;101709.50;4982139;28;45312;-62
2022/05/07 18:02:10;;;;;;;;;5.75;4.50;;;;;24.42;30.80;101719.72;4982019;28;45284;-62
2022/05/07 18:04:37;;;;;;;;;5.00;5.00;;;;;24.39;31.21;101714.53;4981901;28;46092;-62
2022/05/07 18:07:03;;;;;;;;;4.75;4.75;;;;;24.36;31.44;101718.25;4982192;28;45386;-63
2022/05/07 18:09:28;;;;;;;;;4.75;4.75;;;;;24.31;31.38;101714.97;4981724;28;45505;-63
2022/05/07 18:11:54;;;;;;;;;4.50;4.50;;;;;24.27;31.32;101719.63;4980744;28;45299;-63
2022/05/07 18:14:20;;;;;;;;;4.00;4.00;;;;;24.22;31.78;101718.19;4981691;28;45978;-63
2022/05/07 18:16:47;;;;;;;;;3.75;3.75;;;;;24.18;31.92;101722.84;4981490;28;45414;-63
2022/05/07 18:19:14;;;;;;;;;6.00;6.00;;;;;24.14;32.30;101724.84;4981695;28;45348;-63
2022/05/07 18:21:40;;;;;;;;;5.50;5.00;;;;;24.09;32.21;101718.88;4964014;28;45347;-64
2022/05/07 18:24:10;;;;;;;;;6.75;6.75;;;;;24.05;32.27;101728.06;4979857;28;47466;-63
2022/05/07 18:26:36;;;;;;;;;6.25;4.00;;;;;24.00;32.29;101725.63;4981530;28;45342;-63
2022/05/07 18:29:04;;;;;;;;;4.00;3.75;;;;;23.96;32.34;101731.22;4981582;28;45279;-63
2022/05/07 18:31:29;;;;;;;;;2.00;2.00;;;;;23.92;32.45;101730.53;4981269;28;45370;-62
2022/05/07 18:33:55;;;;;;;;;5.50;5.00;;;;;23.85;32.78;101735.34;4981041;28;45330;-62
2022/05/07 18:44:34;;;;;;;;;5.50;4.75;;;;;23.58;32.91;101745.75;4998184;28;45313;-63
2022/05/07 18:46:59;;;;;;;;;5.50;5.00;;;;;23.54;32.93;101744.19;4989199;28;45204;-62
2022/05/07 18:49:28;;;;;;;;;5.50;5.00;;;;;23.48;32.83;101750.75;4981268;28;45182;-63
2022/05/07 18:51:53;;;;;;;;;7.50;7.00;;;;;23.42;32.88;101751.06;4980994;28;45468;-63
2022/05/07 18:54:19;;;;;;;;;6.75;6.00;;;;;23.37;33.02;101748.63;4981028;28;46297;-63
2022/05/07 18:59:29;;;;;;;;;3.75;3.25;;;;;23.20;33.12;101748.63;4981182;28;45408;-63
2022/05/07 19:01:56;;;;;;;;;7.25;5.00;;;;;23.17;33.28;101756.84;4980472;28;45341;-63
2022/05/07 19:04:21;;;;;;;;;5.50;5.50;;;;;23.11;33.10;101751.75;4980211;28;46196;-63
2022/05/07 19:06:46;;;;;;;;;9.00;8.50;;;;;23.01;33.25;101741.50;4980694;28;45319;-62
2022/05/07 19:09:12;;;;;;;;;7.50;6.75;;;;;22.99;33.58;101753.25;4981119;28;45316;-62
2022/05/07 19:11:37;;;;;;;;;7.75;5.00;;;;;22.93;33.23;101756.22;4980876;28;45290;-62
2022/05/07 19:14:03;;;;;;;;;7.25;6.50;;;;;22.86;33.54;101753.84;4980750;28;45918;-62
2022/05/07 19:16:28;;;;;;;;;6.50;6.50;;;;;22.82;33.63;101762.16;4980625;28;45267;-62
2022/05/07 19:18:54;;;;;;;;;8.00;7.00;;;;;22.76;33.44;101767.81;4980905;28;45319;-62
2022/05/07 19:21:19;;;;;;;;;6.50;6.50;;;;;22.69;33.52;101769.91;4980753;28;45163;-62
2022/05/07 19:23:45;;;;;;;;;7.00;5.75;;;;;22.62;33.76;101765.81;4980667;28;46093;-62
2022/05/07 19:26:11;;;;;;;;;6.50;6.50;;;;;22.53;33.60;101770.66;4980606;28;45355;-62
2022/05/07 19:28:38;;;;;;;;;5.25;5.25;;;;;22.53;33.70;101785.88;4963075;28;45348;-62
2022/05/07 19:31:04;;;;;;;;;5.25;5.25;;;;;22.46;33.78;101773.72;4980288;28;45351;-62
2022/05/07 19:33:30;;;;;;;;;4.25;4.25;;;;;22.42;33.70;101777.50;4980405;28;45698;-62